sensor_id;sensor_type;location;lat;lon;timestamp;pressure;altitude;pressure_sealevel;temperature;humidity
51926;BME280;37952;51.938;15.480;2022-12-17T00:01:36;100094.86;;;-4.72;77.96
51926;BME280;37952;51.938;15.480;2022-12-17T00:04:58;100093.06;;;-4.59;77.80
51926;BME280;37952;51.938;15.480;2022-12-17T00:08:19;100093.10;;;-4.54;77.45
51926;BME280;37952;51.938;15.480;2022-12-17T00:11:41;100091.88;;;-4.56;77.60
51926;BME280;37952;51.938;15.480;2022-12-17T00:15:04;100100.77;;;-4.66;77.65
51926;BME280;37952;51.938;15.480;2022-12-17T00:18:26;100101.98;;;-4.64;77.40
51926;BME280;37952;51.938;15.480;2022-12-17T00:21:48;100102.34;;;-4.62;77.33
51926;BME280;37952;51.938;15.480;2022-12-17T00:25:11;100105.71;;;-4.72;77.58
51926;BME280;37952;51.938;15.480;2022-12-17T00:28:33;100112.73;;;-4.75;77.43
51926;BME280;37952;51.938;15.480;2022-12-17T00:31:54;100116.70;;;-4.74;77.51
51926;BME280;37952;51.938;15.480;2022-12-17T00:35:16;100120.67;;;-4.71;77.43
51926;BME280;37952;51.938;15.480;2022-12-17T00:38:38;100125.72;;;-4.63;77.54
51926;BME280;37952;51.938;15.480;2022-12-17T00:42:01;100124.70;;;-4.61;77.56
51926;BME280;37952;51.938;15.480;2022-12-17T00:45:23;100130.02;;;-4.62;77.67
51926;BME280;37952;51.938;15.480;2022-12-17T00:48:44;100133.11;;;-4.65;77.68
51926;BME280;37952;51.938;15.480;2022-12-17T00:52:06;100133.14;;;-4.60;77.37
51926;BME280;37952;51.938;15.480;2022-12-17T00:55:27;100136.58;;;-4.61;77.38
51926;BME280;37952;51.938;15.480;2022-12-17T00:58:49;100137.28;;;-4.59;77.41
51926;BME280;37952;51.938;15.480;2022-12-17T01:02:11;100144.20;;;-4.55;77.43
51926;BME280;37952;51.938;15.480;2022-12-17T01:05:33;100141.45;;;-4.54;77.42
51926;BME280;37952;51.938;15.480;2022-12-17T01:08:55;100148.92;;;-4.65;77.56
51926;BME280;37952;51.938;15.480;2022-12-17T01:12:17;100157.48;;;-4.72;77.54
51926;BME280;37952;51.938;15.480;2022-12-17T01:15:38;100157.41;;;-4.79;77.70
51926;BME280;37952;51.938;15.480;2022-12-17T01:19:00;100162.14;;;-4.90;77.76
51926;BME280;37952;51.938;15.480;2022-12-17T01:22:22;100173.20;;;-5.01;78.06
51926;BME280;37952;51.938;15.480;2022-12-17T01:25:52;100173.49;;;-5.06;78.18
51926;BME280;37952;51.938;15.480;2022-12-17T01:29:13;100167.89;;;-5.00;78.02
51926;BME280;37952;51.938;15.480;2022-12-17T01:32:35;100169.10;;;-4.99;78.20
51926;BME280;37952;51.938;15.480;2022-12-17T01:35:57;100174.13;;;-4.94;78.26
51926;BME280;37952;51.938;15.480;2022-12-17T01:39:18;100169.30;;;-4.97;78.30
51926;BME280;37952;51.938;15.480;2022-12-17T01:42:42;100172.57;;;-4.95;78.03
51926;BME280;37952;51.938;15.480;2022-12-17T01:46:07;100173.41;;;-4.97;78.26
51926;BME280;37952;51.938;15.480;2022-12-17T01:49:29;100176.17;;;-4.97;78.29
51926;BME280;37952;51.938;15.480;2022-12-17T01:52:54;100181.20;;;-4.92;78.13
51926;BME280;37952;51.938;15.480;2022-12-17T01:56:17;100185.45;;;-4.95;78.33
51926;BME280;37952;51.938;15.480;2022-12-17T02:00:03;100184.77;;;-4.96;78.32
51926;BME280;37952;51.938;15.480;2022-12-17T02:03:26;100185.36;;;-4.89;78.33
51926;BME280;37952;51.938;15.480;2022-12-17T02:14:22;100190.56;;;-4.84;78.41
51926;BME280;37952;51.938;15.480;2022-12-17T02:17:52;100190.36;;;-4.86;78.17
51926;BME280;37952;51.938;15.480;2022-12-17T02:21:14;100192.20;;;-4.93;78.31
51926;BME280;37952;51.938;15.480;2022-12-17T02:24:45;100191.78;;;-4.99;78.52
51926;BME280;37952;51.938;15.480;2022-12-17T02:28:08;100190.04;;;-5.01;78.54
51926;BME280;37952;51.938;15.480;2022-12-17T02:31:31;100186.13;;;-4.99;78.57
51926;BME280;37952;51.938;15.480;2022-12-17T02:34:55;100185.61;;;-4.98;78.49
51926;BME280;37952;51.938;15.480;2022-12-17T02:38:25;100192.23;;;-5.06;78.57
51926;BME280;37952;51.938;15.480;2022-12-17T02:41:50;100191.91;;;-5.03;78.68
51926;BME280;37952;51.938;15.480;2022-12-17T02:45:15;100198.80;;;-5.02;78.47
51926;BME280;37952;51.938;15.480;2022-12-17T02:48:37;100205.67;;;-5.03;78.56
51926;BME280;37952;51.938;15.480;2022-12-17T02:51:59;100209.00;;;-4.97;78.35
51926;BME280;37952;51.938;15.480;2022-12-17T02:55:21;100210.58;;;-4.94;78.65
51926;BME280;37952;51.938;15.480;2022-12-17T02:58:42;100208.55;;;-4.91;78.51
51926;BME280;37952;51.938;15.480;2022-12-17T03:02:15;100203.63;;;-4.85;78.39
51926;BME280;37952;51.938;15.480;2022-12-17T03:05:36;100204.28;;;-4.87;78.25
51926;BME280;37952;51.938;15.480;2022-12-17T03:08:58;100207.72;;;-4.86;78.35
51926;BME280;37952;51.938;15.480;2022-12-17T03:12:20;100208.57;;;-4.89;78.42
51926;BME280;37952;51.938;15.480;2022-12-17T03:15:41;100206.95;;;-4.96;78.46
51926;BME280;37952;51.938;15.480;2022-12-17T03:19:03;100209.02;;;-4.96;78.56
51926;BME280;37952;51.938;15.480;2022-12-17T03:22:25;100211.89;;;-5.00;78.76
51926;BME280;37952;51.938;15.480;2022-12-17T03:25:46;100219.92;;;-5.05;78.78
51926;BME280;37952;51.938;15.480;2022-12-17T03:29:08;100217.13;;;-5.09;78.96
51926;BME280;37952;51.938;15.480;2022-12-17T03:32:30;100213.52;;;-5.09;79.05
51926;BME280;37952;51.938;15.480;2022-12-17T03:35:52;100213.86;;;-5.09;79.05
51926;BME280;37952;51.938;15.480;2022-12-17T03:39:14;100208.98;;;-5.14;79.02
51926;BME280;37952;51.938;15.480;2022-12-17T03:42:35;100218.48;;;-5.12;79.22
51926;BME280;37952;51.938;15.480;2022-12-17T03:45:57;100218.95;;;-5.15;79.04
51926;BME280;37952;51.938;15.480;2022-12-17T03:49:19;100219.09;;;-5.19;79.18
51926;BME280;37952;51.938;15.480;2022-12-17T03:52:41;100217.77;;;-5.29;79.59
51926;BME280;37952;51.938;15.480;2022-12-17T03:56:02;100223.77;;;-5.30;79.89
51926;BME280;37952;51.938;15.480;2022-12-17T03:59:24;100224.54;;;-5.23;79.94
51926;BME280;37952;51.938;15.480;2022-12-17T04:02:46;100234.53;;;-5.21;79.93
51926;BME280;37952;51.938;15.480;2022-12-17T04:06:07;100244.73;;;-5.16;79.76
51926;BME280;37952;51.938;15.480;2022-12-17T04:09:28;100250.41;;;-5.14;79.92
51926;BME280;37952;51.938;15.480;2022-12-17T04:12:50;100254.04;;;-5.13;79.85
51926;BME280;37952;51.938;15.480;2022-12-17T04:16:12;100254.85;;;-5.17;79.94
51926;BME280;37952;51.938;15.480;2022-12-17T04:19:33;100262.93;;;-5.17;80.07
51926;BME280;37952;51.938;15.480;2022-12-17T04:22:55;100265.92;;;-5.11;80.04
51926;BME280;37952;51.938;15.480;2022-12-17T04:26:17;100267.46;;;-5.12;79.77
51926;BME280;37952;51.938;15.480;2022-12-17T04:29:38;100265.98;;;-5.21;80.20
51926;BME280;37952;51.938;15.480;2022-12-17T04:33:00;100268.02;;;-5.22;80.30
51926;BME280;37952;51.938;15.480;2022-12-17T04:36:21;100266.06;;;-5.14;80.28
51926;BME280;37952;51.938;15.480;2022-12-17T04:39:43;100270.25;;;-5.09;79.99
51926;BME280;37952;51.938;15.480;2022-12-17T04:43:24;100266.77;;;-5.11;80.24
51926;BME280;37952;51.938;15.480;2022-12-17T04:46:46;100270.64;;;-5.04;80.28
51926;BME280;37952;51.938;15.480;2022-12-17T04:50:07;100272.54;;;-5.03;80.38
51926;BME280;37952;51.938;15.480;2022-12-17T04:53:29;100273.77;;;-5.01;80.28
51926;BME280;37952;51.938;15.480;2022-12-17T04:56:50;100280.52;;;-4.98;80.22
51926;BME280;37952;51.938;15.480;2022-12-17T05:00:12;100285.45;;;-4.87;80.16
51926;BME280;37952;51.938;15.480;2022-12-17T05:03:34;100295.48;;;-4.81;79.79
51926;BME280;37952;51.938;15.480;2022-12-17T05:06:56;100304.96;;;-4.79;79.84
51926;BME280;37952;51.938;15.480;2022-12-17T05:10:18;100305.07;;;-4.69;79.44
51926;BME280;37952;51.938;15.480;2022-12-17T05:13:39;100308.48;;;-4.71;79.23
51926;BME280;37952;51.938;15.480;2022-12-17T05:17:01;100313.14;;;-4.70;79.06
51926;BME280;37952;51.938;15.480;2022-12-17T05:20:23;100315.13;;;-4.76;79.32
51926;BME280;37952;51.938;15.480;2022-12-17T05:23:45;100320.08;;;-4.81;79.06
51926;BME280;37952;51.938;15.480;2022-12-17T05:27:07;100318.80;;;-4.88;79.45
51926;BME280;37952;51.938;15.480;2022-12-17T05:30:28;100321.70;;;-4.89;79.39
51926;BME280;37952;51.938;15.480;2022-12-17T05:33:50;100328.59;;;-4.88;79.32
51926;BME280;37952;51.938;15.480;2022-12-17T05:37:12;100337.85;;;-4.91;79.77
51926;BME280;37952;51.938;15.480;2022-12-17T05:40:33;100342.02;;;-4.88;79.61
51926;BME280;37952;51.938;15.480;2022-12-17T05:43:55;100346.48;;;-4.86;79.50
51926;BME280;37952;51.938;15.480;2022-12-17T05:47:17;100352.34;;;-4.86;79.41
51926;BME280;37952;51.938;15.480;2022-12-17T05:50:38;100358.88;;;-4.86;79.50
51926;BME280;37952;51.938;15.480;2022-12-17T05:54:00;100369.02;;;-4.87;79.55
51926;BME280;37952;51.938;15.480;2022-12-17T05:57:22;100377.02;;;-4.78;79.30
51926;BME280;37952;51.938;15.480;2022-12-17T06:00:43;100382.09;;;-4.72;79.05
51926;BME280;37952;51.938;15.480;2022-12-17T06:04:05;100383.09;;;-4.75;79.35
51926;BME280;37952;51.938;15.480;2022-12-17T06:07:26;100383.89;;;-4.79;78.92
51926;BME280;37952;51.938;15.480;2022-12-17T06:10:48;100393.66;;;-4.81;79.14
51926;BME280;37952;51.938;15.480;2022-12-17T06:14:09;100394.00;;;-4.83;79.06
51926;BME280;37952;51.938;15.480;2022-12-17T06:17:31;100393.88;;;-4.79;79.08
51926;BME280;37952;51.938;15.480;2022-12-17T06:20:52;100393.06;;;-4.75;78.97
51926;BME280;37952;51.938;15.480;2022-12-17T06:24:14;100403.21;;;-4.75;79.24
51926;BME280;37952;51.938;15.480;2022-12-17T06:27:35;100402.84;;;-4.76;79.05
51926;BME280;37952;51.938;15.480;2022-12-17T06:30:57;100402.46;;;-4.80;79.23
51926;BME280;37952;51.938;15.480;2022-12-17T06:34:18;100406.77;;;-4.79;79.39
51926;BME280;37952;51.938;15.480;2022-12-17T06:37:40;100410.45;;;-4.87;79.45
51926;BME280;37952;51.938;15.480;2022-12-17T06:41:02;100411.60;;;-4.91;79.59
51926;BME280;37952;51.938;15.480;2022-12-17T06:44:23;100412.58;;;-4.94;79.96
51926;BME280;37952;51.938;15.480;2022-12-17T06:47:45;100418.17;;;-5.01;79.88
51926;BME280;37952;51.938;15.480;2022-12-17T06:51:06;100424.02;;;-5.01;79.94
51926;BME280;37952;51.938;15.480;2022-12-17T06:54:28;100431.77;;;-4.88;79.90
51926;BME280;37952;51.938;15.480;2022-12-17T06:57:58;100437.75;;;-4.76;79.84
51926;BME280;37952;51.938;15.480;2022-12-17T07:01:33;100443.70;;;-4.70;79.79
51926;BME280;37952;51.938;15.480;2022-12-17T07:04:55;100443.73;;;-4.65;79.75
51926;BME280;37952;51.938;15.480;2022-12-17T07:08:17;100450.17;;;-4.61;79.57
51926;BME280;37952;51.938;15.480;2022-12-17T07:11:38;100455.55;;;-4.57;79.36
51926;BME280;37952;51.938;15.480;2022-12-17T07:15:00;100459.30;;;-4.46;79.52
51926;BME280;37952;51.938;15.480;2022-12-17T07:18:21;100463.43;;;-4.46;79.22
51926;BME280;37952;51.938;15.480;2022-12-17T07:21:43;100467.98;;;-4.53;79.10
51926;BME280;37952;51.938;15.480;2022-12-17T07:25:05;100468.88;;;-4.64;79.39
51926;BME280;37952;51.938;15.480;2022-12-17T07:28:27;100471.69;;;-4.61;79.13
51926;BME280;37952;51.938;15.480;2022-12-17T07:31:49;100480.74;;;-4.51;79.29
51926;BME280;37952;51.938;15.480;2022-12-17T07:35:10;100482.93;;;-4.54;79.25
51926;BME280;37952;51.938;15.480;2022-12-17T07:38:32;100491.84;;;-4.58;79.17
51926;BME280;37952;51.938;15.480;2022-12-17T07:41:54;100493.86;;;-4.61;79.29
51926;BME280;37952;51.938;15.480;2022-12-17T07:45:17;100493.52;;;-4.60;79.34
51926;BME280;37952;51.938;15.480;2022-12-17T07:48:39;100500.40;;;-4.61;79.32
51926;BME280;37952;51.938;15.480;2022-12-17T07:52:00;100511.07;;;-4.60;79.22
51926;BME280;37952;51.938;15.480;2022-12-17T07:55:22;100513.71;;;-4.57;79.04
51926;BME280;37952;51.938;15.480;2022-12-17T07:58:43;100507.89;;;-4.53;79.06
51926;BME280;37952;51.938;15.480;2022-12-17T08:02:05;100514.00;;;-4.48;78.88
51926;BME280;37952;51.938;15.480;2022-12-17T08:05:30;100517.48;;;-4.44;78.84
51926;BME280;37952;51.938;15.480;2022-12-17T08:08:51;100521.29;;;-4.42;78.76
51926;BME280;37952;51.938;15.480;2022-12-17T08:12:13;100528.02;;;-4.41;78.66
51926;BME280;37952;51.938;15.480;2022-12-17T08:15:35;100537.69;;;-4.38;78.58
51926;BME280;37952;51.938;15.480;2022-12-17T08:18:57;100547.36;;;-4.36;78.78
51926;BME280;37952;51.938;15.480;2022-12-17T08:22:18;100551.17;;;-4.34;78.49
51926;BME280;37952;51.938;15.480;2022-12-17T08:25:40;100553.56;;;-4.35;78.63
51926;BME280;37952;51.938;15.480;2022-12-17T08:29:02;100562.25;;;-4.42;78.62
51926;BME280;37952;51.938;15.480;2022-12-17T08:32:24;100569.91;;;-4.48;78.57
51926;BME280;37952;51.938;15.480;2022-12-17T08:35:53;100571.67;;;-4.45;78.57
51926;BME280;37952;51.938;15.480;2022-12-17T08:39:15;100576.41;;;-4.39;78.35
51926;BME280;37952;51.938;15.480;2022-12-17T08:42:36;100575.77;;;-4.35;78.34
51926;BME280;37952;51.938;15.480;2022-12-17T08:45:58;100581.27;;;-4.36;78.62
51926;BME280;37952;51.938;15.480;2022-12-17T08:49:20;100586.49;;;-4.31;78.31
51926;BME280;37952;51.938;15.480;2022-12-17T08:52:41;100591.89;;;-4.26;78.26
51926;BME280;37952;51.938;15.480;2022-12-17T08:56:03;100594.98;;;-4.27;78.28
51926;BME280;37952;51.938;15.480;2022-12-17T08:59:25;100599.13;;;-4.25;78.11
51926;BME280;37952;51.938;15.480;2022-12-17T09:02:47;100602.20;;;-4.28;78.06
51926;BME280;37952;51.938;15.480;2022-12-17T09:06:09;100605.66;;;-4.27;78.19
51926;BME280;37952;51.938;15.480;2022-12-17T09:09:37;100608.55;;;-4.28;78.13
51926;BME280;37952;51.938;15.480;2022-12-17T09:13:02;100605.04;;;-4.34;78.08
51926;BME280;37952;51.938;15.480;2022-12-17T09:16:23;100606.34;;;-4.39;78.28
51926;BME280;37952;51.938;15.480;2022-12-17T09:19:45;100611.27;;;-4.42;78.16
51926;BME280;37952;51.938;15.480;2022-12-17T09:23:07;100611.93;;;-4.45;77.99
51926;BME280;37952;51.938;15.480;2022-12-17T09:26:29;100616.80;;;-4.42;78.22
51926;BME280;37952;51.938;15.480;2022-12-17T09:29:50;100621.11;;;-4.42;78.09
51926;BME280;37952;51.938;15.480;2022-12-17T09:33:16;100619.89;;;-4.42;77.85
51926;BME280;37952;51.938;15.480;2022-12-17T09:36:38;100623.92;;;-4.49;78.04
51926;BME280;37952;51.938;15.480;2022-12-17T09:39:59;100624.35;;;-4.56;77.69
51926;BME280;37952;51.938;15.480;2022-12-17T09:43:50;100622.73;;;-4.59;77.71
51926;BME280;37952;51.938;15.480;2022-12-17T09:47:34;100629.15;;;-4.67;77.91
51926;BME280;37952;51.938;15.480;2022-12-17T09:51:00;100636.46;;;-4.82;77.99
51926;BME280;37952;51.938;15.480;2022-12-17T09:54:45;100640.94;;;-4.94;78.03
51926;BME280;37952;51.938;15.480;2022-12-17T09:58:20;100642.55;;;-5.00;78.22
51926;BME280;37952;51.938;15.480;2022-12-17T10:01:43;100647.70;;;-4.90;78.21
51926;BME280;37952;51.938;15.480;2022-12-17T10:05:15;100644.77;;;-4.80;78.31
51926;BME280;37952;51.938;15.480;2022-12-17T10:08:40;100651.66;;;-4.79;78.23
51926;BME280;37952;51.938;15.480;2022-12-17T10:12:29;100654.02;;;-4.82;78.22
51926;BME280;37952;51.938;15.480;2022-12-17T10:15:50;100657.52;;;-4.99;77.99
51926;BME280;37952;51.938;15.480;2022-12-17T10:19:29;100659.75;;;-4.99;78.43
51926;BME280;37952;51.938;15.480;2022-12-17T10:22:54;100664.75;;;-4.89;78.21
51926;BME280;37952;51.938;15.480;2022-12-17T10:26:30;100665.26;;;-4.89;78.24
51926;BME280;37952;51.938;15.480;2022-12-17T10:29:52;100670.77;;;-4.99;78.50
51926;BME280;37952;51.938;15.480;2022-12-17T10:33:18;100677.79;;;-5.00;78.12
51926;BME280;37952;51.938;15.480;2022-12-17T10:36:45;100685.95;;;-4.95;78.26
51926;BME280;37952;51.938;15.480;2022-12-17T10:40:22;100696.23;;;-5.07;78.21
51926;BME280;37952;51.938;15.480;2022-12-17T10:43:44;100701.10;;;-5.14;78.33
51926;BME280;37952;51.938;15.480;2022-12-17T10:47:11;100699.34;;;-5.24;78.32
51926;BME280;37952;51.938;15.480;2022-12-17T10:50:39;100698.98;;;-5.16;78.37
51926;BME280;37952;51.938;15.480;2022-12-17T10:54:19;100695.66;;;-5.01;78.45
51926;BME280;37952;51.938;15.480;2022-12-17T10:57:50;100699.48;;;-4.89;78.30
51926;BME280;37952;51.938;15.480;2022-12-17T11:01:20;100701.48;;;-4.82;78.16
51926;BME280;37952;51.938;15.480;2022-12-17T11:04:51;100698.70;;;-4.84;78.04
51926;BME280;37952;51.938;15.480;2022-12-17T11:08:15;100701.04;;;-4.97;77.93
51926;BME280;37952;51.938;15.480;2022-12-17T11:11:37;100705.27;;;-5.01;77.97
51926;BME280;37952;51.938;15.480;2022-12-17T11:15:23;100710.65;;;-4.98;77.85
51926;BME280;37952;51.938;15.480;2022-12-17T11:22:35;100710.35;;;-4.87;78.00
51926;BME280;37952;51.938;15.480;2022-12-17T11:26:07;100712.80;;;-4.84;77.70
51926;BME280;37952;51.938;15.480;2022-12-17T11:29:31;100720.34;;;-4.86;77.76
51926;BME280;37952;51.938;15.480;2022-12-17T11:36:34;100718.79;;;-4.67;78.04
51926;BME280;37952;51.938;15.480;2022-12-17T11:40:23;100729.11;;;-4.57;77.68
51926;BME280;37952;51.938;15.480;2022-12-17T11:47:21;100734.10;;;-4.47;77.69
51926;BME280;37952;51.938;15.480;2022-12-17T11:51:17;100736.54;;;-4.44;77.69
51926;BME280;37952;51.938;15.480;2022-12-17T11:55:12;100741.69;;;-4.45;77.21
51926;BME280;37952;51.938;15.480;2022-12-17T12:06:10;100759.32;;;-4.61;77.11
51926;BME280;37952;51.938;15.480;2022-12-17T12:13:37;100759.65;;;-4.80;76.93
51926;BME280;37952;51.938;15.480;2022-12-17T12:28:22;100753.18;;;-4.86;76.81
51926;BME280;37952;51.938;15.480;2022-12-17T12:31:52;100751.60;;;-4.79;76.85
51926;BME280;37952;51.938;15.480;2022-12-17T12:35:23;100747.88;;;-4.75;76.86
51926;BME280;37952;51.938;15.480;2022-12-17T12:38:52;100752.27;;;-4.69;76.69
51926;BME280;37952;51.938;15.480;2022-12-17T12:58:33;100777.18;;;-4.71;76.75
51926;BME280;37952;51.938;15.480;2022-12-17T13:01:55;100779.86;;;-4.75;76.51
51926;BME280;37952;51.938;15.480;2022-12-17T13:05:27;100789.80;;;-4.69;76.53
51926;BME280;37952;51.938;15.480;2022-12-17T13:08:35;100798.78;;;-4.75;76.03
51926;BME280;37952;51.938;15.480;2022-12-17T13:11:39;100802.63;;;-4.81;76.14
51926;BME280;37952;51.938;15.480;2022-12-17T13:15:09;100806.34;;;-4.85;76.04
51926;BME280;37952;51.938;15.480;2022-12-17T13:18:32;100815.90;;;-4.89;76.32
51926;BME280;37952;51.938;15.480;2022-12-17T13:21:35;100812.45;;;-4.98;76.02
51926;BME280;37952;51.938;15.480;2022-12-17T13:24:39;100812.25;;;-4.99;76.29
51926;BME280;37952;51.938;15.480;2022-12-17T13:27:43;100818.40;;;-4.93;76.40
51926;BME280;37952;51.938;15.480;2022-12-17T13:30:47;100822.34;;;-4.93;76.33
51926;BME280;37952;51.938;15.480;2022-12-17T13:44:27;100843.05;;;-4.81;76.26
51926;BME280;37952;51.938;15.480;2022-12-17T13:47:34;100848.52;;;-4.91;76.35
51926;BME280;37952;51.938;15.480;2022-12-17T13:50:39;100852.09;;;-5.02;75.98
51926;BME280;37952;51.938;15.480;2022-12-17T13:53:51;100856.41;;;-5.17;76.13
51926;BME280;37952;51.938;15.480;2022-12-17T13:57:15;100851.27;;;-5.25;76.19
51926;BME280;37952;51.938;15.480;2022-12-17T14:00:27;100853.81;;;-5.26;76.37
51926;BME280;37952;51.938;15.480;2022-12-17T14:03:31;100855.41;;;-5.24;76.37
51926;BME280;37952;51.938;15.480;2022-12-17T14:06:57;100852.93;;;-5.27;76.64
51926;BME280;37952;51.938;15.480;2022-12-17T14:10:01;100866.41;;;-5.23;76.56
51926;BME280;37952;51.938;15.480;2022-12-17T14:13:08;100871.77;;;-5.22;76.55
51926;BME280;37952;51.938;15.480;2022-12-17T14:16:21;100877.32;;;-5.19;76.75
51926;BME280;37952;51.938;15.480;2022-12-17T14:19:26;100881.73;;;-5.23;76.59
51926;BME280;37952;51.938;15.480;2022-12-17T14:22:54;100888.96;;;-5.29;76.63
51926;BME280;37952;51.938;15.480;2022-12-17T14:26:01;100889.23;;;-5.33;76.61
51926;BME280;37952;51.938;15.480;2022-12-17T14:29:11;100891.91;;;-5.44;76.45
51926;BME280;37952;51.938;15.480;2022-12-17T14:32:33;100898.40;;;-5.45;76.66
51926;BME280;37952;51.938;15.480;2022-12-17T14:35:38;100907.33;;;-5.46;76.76
51926;BME280;37952;51.938;15.480;2022-12-17T14:38:53;100911.81;;;-5.52;76.77
51926;BME280;37952;51.938;15.480;2022-12-17T14:42:12;100910.05;;;-5.54;76.59
51926;BME280;37952;51.938;15.480;2022-12-17T14:45:34;100912.63;;;-5.47;76.75
51926;BME280;37952;51.938;15.480;2022-12-17T14:49:00;100913.28;;;-5.41;77.12
51926;BME280;37952;51.938;15.480;2022-12-17T14:52:12;100911.14;;;-5.44;77.25
51926;BME280;37952;51.938;15.480;2022-12-17T14:55:29;100917.31;;;-5.37;77.05
51926;BME280;37952;51.938;15.480;2022-12-17T14:58:44;100931.42;;;-5.37;77.01
51926;BME280;37952;51.938;15.480;2022-12-17T15:01:47;100935.86;;;-5.38;76.93
51926;BME280;37952;51.938;15.480;2022-12-17T15:05:00;100941.59;;;-5.43;77.09
51926;BME280;37952;51.938;15.480;2022-12-17T15:08:04;100937.11;;;-5.43;77.03
51926;BME280;37952;51.938;15.480;2022-12-17T15:11:13;100939.83;;;-5.52;77.28
51926;BME280;37952;51.938;15.480;2022-12-17T15:14:16;100940.22;;;-5.57;77.35
51926;BME280;37952;51.938;15.480;2022-12-17T15:17:19;100949.92;;;-5.53;77.17
51926;BME280;37952;51.938;15.480;2022-12-17T15:20:22;100948.94;;;-5.51;77.23
51926;BME280;37952;51.938;15.480;2022-12-17T15:23:25;100945.24;;;-5.48;77.47
51926;BME280;37952;51.938;15.480;2022-12-17T15:26:28;100945.79;;;-5.40;77.24
51926;BME280;37952;51.938;15.480;2022-12-17T15:29:31;100945.81;;;-5.38;77.12
51926;BME280;37952;51.938;15.480;2022-12-17T15:32:36;100944.67;;;-5.36;77.17
51926;BME280;37952;51.938;15.480;2022-12-17T15:35:39;100946.50;;;-5.31;77.44
51926;BME280;37952;51.938;15.480;2022-12-17T15:38:42;100941.36;;;-5.31;77.30
51926;BME280;37952;51.938;15.480;2022-12-17T15:41:45;100927.99;;;-5.37;77.15
51926;BME280;37952;51.938;15.480;2022-12-17T15:45:07;100938.35;;;-5.27;77.09
51926;BME280;37952;51.938;15.480;2022-12-17T15:48:15;100951.08;;;-5.26;77.24
51926;BME280;37952;51.938;15.480;2022-12-17T15:51:18;100951.58;;;-5.27;77.68
51926;BME280;37952;51.938;15.480;2022-12-17T15:54:22;100954.80;;;-5.29;77.66
51926;BME280;37952;51.938;15.480;2022-12-17T15:57:26;100963.60;;;-5.35;77.82
51926;BME280;37952;51.938;15.480;2022-12-17T16:04:23;100973.15;;;-5.38;77.79
51926;BME280;37952;51.938;15.480;2022-12-17T16:07:27;100979.04;;;-5.36;77.58
51926;BME280;37952;51.938;15.480;2022-12-17T16:10:30;100976.06;;;-5.38;78.07
51926;BME280;37952;51.938;15.480;2022-12-17T16:13:32;100976.61;;;-5.36;77.85
51926;BME280;37952;51.938;15.480;2022-12-17T16:16:35;100985.08;;;-5.35;77.74
51926;BME280;37952;51.938;15.480;2022-12-17T16:19:38;100987.13;;;-5.28;77.69
51926;BME280;37952;51.938;15.480;2022-12-17T16:22:41;100984.96;;;-5.18;77.82
51926;BME280;37952;51.938;15.480;2022-12-17T16:25:44;100992.05;;;-5.08;77.67
51926;BME280;37952;51.938;15.480;2022-12-17T16:28:47;100991.68;;;-5.02;77.64
51926;BME280;37952;51.938;15.480;2022-12-17T16:31:50;100990.23;;;-4.98;77.69
51926;BME280;37952;51.938;15.480;2022-12-17T16:34:53;100994.80;;;-4.94;77.65
51926;BME280;37952;51.938;15.480;2022-12-17T16:37:56;101002.31;;;-4.89;77.61
51926;BME280;37952;51.938;15.480;2022-12-17T16:41:01;101008.27;;;-4.91;77.88
51926;BME280;37952;51.938;15.480;2022-12-17T16:44:05;101011.08;;;-4.97;77.74
51926;BME280;37952;51.938;15.480;2022-12-17T16:47:09;101016.98;;;-4.94;77.80
51926;BME280;37952;51.938;15.480;2022-12-17T16:50:12;101020.00;;;-4.97;77.98
51926;BME280;37952;51.938;15.480;2022-12-17T16:53:17;101020.80;;;-5.00;77.95
51926;BME280;37952;51.938;15.480;2022-12-17T16:56:25;101020.41;;;-5.01;77.86
51926;BME280;37952;51.938;15.480;2022-12-17T16:59:35;101023.54;;;-5.00;78.22
51926;BME280;37952;51.938;15.480;2022-12-17T17:02:38;101030.31;;;-4.98;78.16
51926;BME280;37952;51.938;15.480;2022-12-17T17:05:41;101036.05;;;-5.02;78.04
51926;BME280;37952;51.938;15.480;2022-12-17T17:08:45;101039.33;;;-5.02;78.02
51926;BME280;37952;51.938;15.480;2022-12-17T17:11:48;101036.86;;;-5.11;78.52
51926;BME280;37952;51.938;15.480;2022-12-17T17:15:16;101043.44;;;-5.10;78.62
51926;BME280;37952;51.938;15.480;2022-12-17T17:18:19;101045.94;;;-5.06;78.76
51926;BME280;37952;51.938;15.480;2022-12-17T17:21:32;101057.13;;;-4.98;78.78
51926;BME280;37952;51.938;15.480;2022-12-17T17:24:39;101061.39;;;-4.99;78.73
51926;BME280;37952;51.938;15.480;2022-12-17T17:27:41;101056.79;;;-5.05;78.90
51926;BME280;37952;51.938;15.480;2022-12-17T17:30:44;101053.17;;;-5.05;78.58
51926;BME280;37952;51.938;15.480;2022-12-17T17:33:49;101055.34;;;-5.00;78.94
51926;BME280;37952;51.938;15.480;2022-12-17T17:36:52;101053.10;;;-5.01;78.86
51926;BME280;37952;51.938;15.480;2022-12-17T17:39:55;101058.33;;;-5.05;78.95
51926;BME280;37952;51.938;15.480;2022-12-17T17:42:57;101065.17;;;-5.06;79.19
51926;BME280;37952;51.938;15.480;2022-12-17T17:46:07;101063.95;;;-5.08;79.25
51926;BME280;37952;51.938;15.480;2022-12-17T17:49:12;101063.15;;;-5.05;79.38
51926;BME280;37952;51.938;15.480;2022-12-17T17:52:15;101061.34;;;-5.01;79.20
51926;BME280;37952;51.938;15.480;2022-12-17T17:55:33;101064.10;;;-4.94;78.91
51926;BME280;37952;51.938;15.480;2022-12-17T17:58:36;101071.24;;;-4.90;79.05
51926;BME280;37952;51.938;15.480;2022-12-17T18:01:42;101073.14;;;-4.82;78.67
51926;BME280;37952;51.938;15.480;2022-12-17T18:04:46;101078.67;;;-4.81;78.95
51926;BME280;37952;51.938;15.480;2022-12-17T18:07:48;101082.00;;;-4.78;78.75
51926;BME280;37952;51.938;15.480;2022-12-17T18:10:56;101088.94;;;-4.76;78.96
51926;BME280;37952;51.938;15.480;2022-12-17T18:14:07;101089.65;;;-4.75;78.99
51926;BME280;37952;51.938;15.480;2022-12-17T18:17:10;101087.05;;;-4.75;78.80
51926;BME280;37952;51.938;15.480;2022-12-17T18:20:14;101092.13;;;-4.73;78.72